sensor_id;sensor_type;location;lat;lon;timestamp;P1;durP1;ratioP1;P2;durP2;ratioP2
43998;SDS011;51319;52.162;5.302;2024-01-06T00:01:13;15.30;;;10.15;;
43998;SDS011;51319;52.162;5.302;2024-01-06T00:03:42;13.45;;;9.23;;
43998;SDS011;51319;52.162;5.302;2024-01-06T00:06:13;12.57;;;9.73;;
43998;SDS011;51319;52.162;5.302;2024-01-06T00:08:41;12.98;;;9.40;;
43998;SDS011;51319;52.162;5.302;2024-01-06T00:11:09;12.45;;;9.35;;
43998;SDS011;51319;52.162;5.302;2024-01-06T00:13:37;14.68;;;9.65;;
43998;SDS011;51319;52.162;5.302;2024-01-06T00:16:04;14.38;;;9.77;;
43998;SDS011;51319;52.162;5.302;2024-01-06T00:18:31;13.57;;;8.95;;
43998;SDS011;51319;52.162;5.302;2024-01-06T00:21:00;11.93;;;8.80;;
43998;SDS011;51319;52.162;5.302;2024-01-06T00:23:29;13.98;;;9.02;;
43998;SDS011;51319;52.162;5.302;2024-01-06T00:25:56;11.20;;;8.00;;
43998;SDS011;51319;52.162;5.302;2024-01-06T00:28:23;11.45;;;8.60;;
43998;SDS011;51319;52.162;5.302;2024-01-06T00:30:50;9.85;;;8.05;;
43998;SDS011;51319;52.162;5.302;2024-01-06T00:33:17;10.95;;;7.82;;
43998;SDS011;51319;52.162;5.302;2024-01-06T00:35:45;9.43;;;7.35;;
43998;SDS011;51319;52.162;5.302;2024-01-06T00:38:12;11.02;;;8.23;;
43998;SDS011;51319;52.162;5.302;2024-01-06T00:40:41;13.07;;;8.77;;
43998;SDS011;51319;52.162;5.302;2024-01-06T00:43:08;12.55;;;9.43;;
43998;SDS011;51319;52.162;5.302;2024-01-06T00:45:35;12.50;;;9.48;;
43998;SDS011;51319;52.162;5.302;2024-01-06T00:48:03;16.55;;;9.65;;
43998;SDS011;51319;52.162;5.302;2024-01-06T00:50:32;18.35;;;9.43;;
43998;SDS011;51319;52.162;5.302;2024-01-06T00:52:59;15.25;;;9.43;;
43998;SDS011;51319;52.162;5.302;2024-01-06T00:55:26;12.52;;;8.80;;
43998;SDS011;51319;52.162;5.302;2024-01-06T00:57:54;12.40;;;8.63;;
43998;SDS011;51319;52.162;5.302;2024-01-06T01:00:24;13.60;;;9.30;;
43998;SDS011;51319;52.162;5.302;2024-01-06T01:02:53;13.57;;;9.30;;
43998;SDS011;51319;52.162;5.302;2024-01-06T01:05:22;13.60;;;8.57;;
43998;SDS011;51319;52.162;5.302;2024-01-06T01:07:49;11.65;;;7.72;;
43998;SDS011;51319;52.162;5.302;2024-01-06T01:10:16;9.68;;;8.05;;
43998;SDS011;51319;52.162;5.302;2024-01-06T01:12:43;10.48;;;7.05;;
43998;SDS011;51319;52.162;5.302;2024-01-06T01:15:11;9.18;;;7.68;;
43998;SDS011;51319;52.162;5.302;2024-01-06T01:17:38;10.30;;;7.20;;
43998;SDS011;51319;52.162;5.302;2024-01-06T01:20:06;10.98;;;6.97;;
43998;SDS011;51319;52.162;5.302;2024-01-06T01:22:33;10.05;;;7.35;;
43998;SDS011;51319;52.162;5.302;2024-01-06T01:25:00;9.38;;;7.28;;
43998;SDS011;51319;52.162;5.302;2024-01-06T01:27:35;9.50;;;7.85;;
43998;SDS011;51319;52.162;5.302;2024-01-06T01:30:02;10.30;;;8.88;;
43998;SDS011;51319;52.162;5.302;2024-01-06T01:32:30;13.05;;;8.88;;
43998;SDS011;51319;52.162;5.302;2024-01-06T01:34:57;13.45;;;10.20;;
43998;SDS011;51319;52.162;5.302;2024-01-06T01:37:24;16.58;;;9.32;;
43998;SDS011;51319;52.162;5.302;2024-01-06T01:39:51;16.90;;;9.70;;
43998;SDS011;51319;52.162;5.302;2024-01-06T01:42:18;12.05;;;9.63;;
43998;SDS011;51319;52.162;5.302;2024-01-06T01:44:48;24.98;;;9.07;;
43998;SDS011;51319;52.162;5.302;2024-01-06T01:47:15;14.95;;;9.00;;
43998;SDS011;51319;52.162;5.302;2024-01-06T01:49:48;19.98;;;9.30;;
43998;SDS011;51319;52.162;5.302;2024-01-06T01:52:15;15.05;;;9.32;;
43998;SDS011;51319;52.162;5.302;2024-01-06T01:54:42;13.68;;;9.18;;
43998;SDS011;51319;52.162;5.302;2024-01-06T01:57:11;15.02;;;9.57;;
43998;SDS011;51319;52.162;5.302;2024-01-06T01:59:40;11.90;;;8.18;;
43998;SDS011;51319;52.162;5.302;2024-01-06T02:02:08;13.98;;;8.80;;
43998;SDS011;51319;52.162;5.302;2024-01-06T02:04:35;11.48;;;8.63;;
43998;SDS011;51319;52.162;5.302;2024-01-06T02:07:02;10.52;;;7.55;;
43998;SDS011;51319;52.162;5.302;2024-01-06T02:09:30;9.07;;;7.70;;
43998;SDS011;51319;52.162;5.302;2024-01-06T02:11:57;11.82;;;6.63;;
43998;SDS011;51319;52.162;5.302;2024-01-06T02:14:24;8.05;;;6.03;;
43998;SDS011;51319;52.162;5.302;2024-01-06T02:16:51;7.63;;;5.97;;
43998;SDS011;51319;52.162;5.302;2024-01-06T02:19:20;11.45;;;7.00;;
43998;SDS011;51319;52.162;5.302;2024-01-06T02:21:48;8.63;;;6.88;;
43998;SDS011;51319;52.162;5.302;2024-01-06T02:24:17;10.43;;;6.78;;
43998;SDS011;51319;52.162;5.302;2024-01-06T02:26:44;10.25;;;6.45;;
43998;SDS011;51319;52.162;5.302;2024-01-06T02:29:14;7.80;;;6.75;;
43998;SDS011;51319;52.162;5.302;2024-01-06T02:34:11;12.13;;;7.47;;
43998;SDS011;51319;52.162;5.302;2024-01-06T02:36:38;10.32;;;6.97;;
43998;SDS011;51319;52.162;5.302;2024-01-06T02:39:05;8.40;;;7.05;;
43998;SDS011;51319;52.162;5.302;2024-01-06T02:41:32;9.75;;;6.88;;
43998;SDS011;51319;52.162;5.302;2024-01-06T02:43:59;8.48;;;6.93;;
43998;SDS011;51319;52.162;5.302;2024-01-06T02:46:30;8.70;;;6.07;;
43998;SDS011;51319;52.162;5.302;2024-01-06T02:48:57;7.72;;;5.90;;
43998;SDS011;51319;52.162;5.302;2024-01-06T02:51:25;8.88;;;7.03;;
43998;SDS011;51319;52.162;5.302;2024-01-06T02:53:52;9.23;;;7.15;;
43998;SDS011;51319;52.162;5.302;2024-01-06T02:56:19;10.23;;;6.78;;
43998;SDS011;51319;52.162;5.302;2024-01-06T02:58:46;8.52;;;6.80;;
43998;SDS011;51319;52.162;5.302;2024-01-06T03:01:13;12.38;;;7.35;;
43998;SDS011;51319;52.162;5.302;2024-01-06T03:03:40;9.70;;;7.68;;
43998;SDS011;51319;52.162;5.302;2024-01-06T03:06:08;8.38;;;7.00;;
43998;SDS011;51319;52.162;5.302;2024-01-06T03:08:35;11.30;;;7.35;;
43998;SDS011;51319;52.162;5.302;2024-01-06T03:11:02;9.88;;;7.43;;
43998;SDS011;51319;52.162;5.302;2024-01-06T03:13:31;13.48;;;7.72;;
43998;SDS011;51319;52.162;5.302;2024-01-06T03:16:01;9.73;;;8.20;;
43998;SDS011;51319;52.162;5.302;2024-01-06T03:20:57;11.32;;;6.88;;
43998;SDS011;51319;52.162;5.302;2024-01-06T03:23:24;8.88;;;6.47;;
43998;SDS011;51319;52.162;5.302;2024-01-06T03:25:51;9.05;;;6.78;;
43998;SDS011;51319;52.162;5.302;2024-01-06T03:28:18;12.35;;;6.53;;
43998;SDS011;51319;52.162;5.302;2024-01-06T03:30:46;9.55;;;6.45;;
43998;SDS011;51319;52.162;5.302;2024-01-06T03:33:13;8.05;;;5.90;;
43998;SDS011;51319;52.162;5.302;2024-01-06T03:35:40;7.65;;;6.50;;
43998;SDS011;51319;52.162;5.302;2024-01-06T03:38:07;12.13;;;7.25;;
43998;SDS011;51319;52.162;5.302;2024-01-06T03:40:34;10.43;;;6.53;;
43998;SDS011;51319;52.162;5.302;2024-01-06T03:43:01;9.13;;;6.30;;
43998;SDS011;51319;52.162;5.302;2024-01-06T03:45:28;8.00;;;6.57;;
43998;SDS011;51319;52.162;5.302;2024-01-06T03:47:56;10.10;;;6.60;;
43998;SDS011;51319;52.162;5.302;2024-01-06T03:50:23;9.50;;;6.97;;
43998;SDS011;51319;52.162;5.302;2024-01-06T03:52:50;12.45;;;6.97;;
43998;SDS011;51319;52.162;5.302;2024-01-06T03:55:17;10.88;;;7.72;;
43998;SDS011;51319;52.162;5.302;2024-01-06T03:57:44;10.75;;;8.23;;
43998;SDS011;51319;52.162;5.302;2024-01-06T04:00:11;14.07;;;8.82;;
43998;SDS011;51319;52.162;5.302;2024-01-06T04:02:38;19.85;;;9.20;;
43998;SDS011;51319;52.162;5.302;2024-01-06T04:05:05;14.60;;;8.98;;
43998;SDS011;51319;52.162;5.302;2024-01-06T04:07:32;12.05;;;7.75;;
43998;SDS011;51319;52.162;5.302;2024-01-06T04:09:59;11.65;;;8.27;;
43998;SDS011;51319;52.162;5.302;2024-01-06T04:12:27;11.10;;;7.88;;
43998;SDS011;51319;52.162;5.302;2024-01-06T04:14:54;15.20;;;8.43;;
43998;SDS011;51319;52.162;5.302;2024-01-06T04:17:21;10.25;;;7.90;;
43998;SDS011;51319;52.162;5.302;2024-01-06T04:19:48;11.38;;;8.90;;
43998;SDS011;51319;52.162;5.302;2024-01-06T04:22:15;11.82;;;7.80;;
43998;SDS011;51319;52.162;5.302;2024-01-06T04:24:42;11.35;;;8.45;;
43998;SDS011;51319;52.162;5.302;2024-01-06T04:27:11;10.05;;;8.20;;
43998;SDS011;51319;52.162;5.302;2024-01-06T04:29:38;11.95;;;7.30;;
43998;SDS011;51319;52.162;5.302;2024-01-06T04:32:05;11.65;;;8.48;;
43998;SDS011;51319;52.162;5.302;2024-01-06T04:34:34;12.27;;;7.18;;
43998;SDS011;51319;52.162;5.302;2024-01-06T04:37:01;12.63;;;8.80;;
43998;SDS011;51319;52.162;5.302;2024-01-06T04:39:28;17.20;;;9.75;;
43998;SDS011;51319;52.162;5.302;2024-01-06T04:41:56;15.85;;;10.45;;
43998;SDS011;51319;52.162;5.302;2024-01-06T04:44:25;13.55;;;9.52;;
43998;SDS011;51319;52.162;5.302;2024-01-06T04:46:52;15.27;;;10.73;;
43998;SDS011;51319;52.162;5.302;2024-01-06T04:49:19;25.05;;;12.52;;
43998;SDS011;51319;52.162;5.302;2024-01-06T04:51:46;25.20;;;13.43;;
43998;SDS011;51319;52.162;5.302;2024-01-06T04:54:15;21.33;;;13.43;;
43998;SDS011;51319;52.162;5.302;2024-01-06T04:56:42;20.05;;;13.32;;
43998;SDS011;51319;52.162;5.302;2024-01-06T04:59:09;19.33;;;12.77;;
43998;SDS011;51319;52.162;5.302;2024-01-06T05:01:36;22.38;;;13.88;;
43998;SDS011;51319;52.162;5.302;2024-01-06T05:04:03;19.83;;;12.93;;
43998;SDS011;51319;52.162;5.302;2024-01-06T05:06:30;23.05;;;12.60;;
43998;SDS011;51319;52.162;5.302;2024-01-06T05:08:59;20.77;;;12.65;;
43998;SDS011;51319;52.162;5.302;2024-01-06T05:11:26;21.92;;;14.00;;
43998;SDS011;51319;52.162;5.302;2024-01-06T05:13:54;20.70;;;12.90;;
43998;SDS011;51319;52.162;5.302;2024-01-06T05:16:21;20.10;;;12.70;;
43998;SDS011;51319;52.162;5.302;2024-01-06T05:18:48;27.00;;;13.00;;
43998;SDS011;51319;52.162;5.302;2024-01-06T05:21:15;22.08;;;12.13;;
43998;SDS011;51319;52.162;5.302;2024-01-06T05:23:42;23.23;;;13.70;;
43998;SDS011;51319;52.162;5.302;2024-01-06T05:26:09;18.02;;;12.52;;
43998;SDS011;51319;52.162;5.302;2024-01-06T05:28:38;19.65;;;12.05;;
43998;SDS011;51319;52.162;5.302;2024-01-06T05:31:05;23.58;;;12.63;;
43998;SDS011;51319;52.162;5.302;2024-01-06T05:33:32;21.55;;;12.00;;
43998;SDS011;51319;52.162;5.302;2024-01-06T05:36:00;20.58;;;12.25;;
43998;SDS011;51319;52.162;5.302;2024-01-06T05:38:28;23.63;;;13.48;;
43998;SDS011;51319;52.162;5.302;2024-01-06T05:40:55;26.75;;;13.82;;
43998;SDS011;51319;52.162;5.302;2024-01-06T05:43:27;25.52;;;13.63;;
43998;SDS011;51319;52.162;5.302;2024-01-06T05:45:56;25.83;;;12.65;;
43998;SDS011;51319;52.162;5.302;2024-01-06T05:48:23;21.88;;;13.88;;
43998;SDS011;51319;52.162;5.302;2024-01-06T05:50:50;22.45;;;12.77;;
43998;SDS011;51319;52.162;5.302;2024-01-06T05:53:16;22.80;;;13.75;;
43998;SDS011;51319;52.162;5.302;2024-01-06T05:55:44;22.55;;;12.88;;
43998;SDS011;51319;52.162;5.302;2024-01-06T05:58:11;22.48;;;12.55;;
43998;SDS011;51319;52.162;5.302;2024-01-06T06:00:39;23.95;;;13.07;;
43998;SDS011;51319;52.162;5.302;2024-01-06T06:03:06;24.00;;;13.68;;
43998;SDS011;51319;52.162;5.302;2024-01-06T06:05:34;21.65;;;13.32;;
43998;SDS011;51319;52.162;5.302;2024-01-06T06:08:02;26.02;;;14.20;;
43998;SDS011;51319;52.162;5.302;2024-01-06T06:10:30;21.35;;;12.68;;
43998;SDS011;51319;52.162;5.302;2024-01-06T06:13:07;23.48;;;13.88;;
43998;SDS011;51319;52.162;5.302;2024-01-06T06:15:37;22.33;;;13.30;;
43998;SDS011;51319;52.162;5.302;2024-01-06T06:18:04;23.58;;;13.35;;
43998;SDS011;51319;52.162;5.302;2024-01-06T06:20:31;24.02;;;13.50;;
43998;SDS011;51319;52.162;5.302;2024-01-06T06:22:58;20.52;;;13.30;;
43998;SDS011;51319;52.162;5.302;2024-01-06T06:25:25;23.70;;;16.02;;
43998;SDS011;51319;52.162;5.302;2024-01-06T06:27:52;24.30;;;15.00;;
43998;SDS011;51319;52.162;5.302;2024-01-06T06:30:19;22.00;;;14.40;;
43998;SDS011;51319;52.162;5.302;2024-01-06T06:32:46;26.08;;;14.25;;
43998;SDS011;51319;52.162;5.302;2024-01-06T06:35:15;22.45;;;13.95;;
43998;SDS011;51319;52.162;5.302;2024-01-06T06:37:42;30.17;;;14.10;;
43998;SDS011;51319;52.162;5.302;2024-01-06T06:40:09;24.60;;;14.30;;
43998;SDS011;51319;52.162;5.302;2024-01-06T06:42:37;21.42;;;14.35;;
43998;SDS011;51319;52.162;5.302;2024-01-06T06:45:04;24.00;;;12.25;;
43998;SDS011;51319;52.162;5.302;2024-01-06T06:47:31;21.08;;;11.90;;
43998;SDS011;51319;52.162;5.302;2024-01-06T06:49:58;17.85;;;11.95;;
43998;SDS011;51319;52.162;5.302;2024-01-06T06:52:25;27.30;;;12.18;;
43998;SDS011;51319;52.162;5.302;2024-01-06T06:54:58;17.70;;;12.38;;
43998;SDS011;51319;52.162;5.302;2024-01-06T06:57:35;17.52;;;10.15;;
43998;SDS011;51319;52.162;5.302;2024-01-06T07:00:02;19.85;;;10.88;;
43998;SDS011;51319;52.162;5.302;2024-01-06T07:02:30;18.40;;;11.48;;
43998;SDS011;51319;52.162;5.302;2024-01-06T07:04:57;17.00;;;11.15;;
43998;SDS011;51319;52.162;5.302;2024-01-06T07:07:24;17.92;;;11.88;;
43998;SDS011;51319;52.162;5.302;2024-01-06T07:09:51;19.77;;;12.05;;
43998;SDS011;51319;52.162;5.302;2024-01-06T07:12:18;22.92;;;12.05;;
43998;SDS011;51319;52.162;5.302;2024-01-06T07:14:45;25.05;;;12.52;;
43998;SDS011;51319;52.162;5.302;2024-01-06T07:17:14;18.05;;;12.32;;
43998;SDS011;51319;52.162;5.302;2024-01-06T07:19:41;23.90;;;12.63;;
43998;SDS011;51319;52.162;5.302;2024-01-06T07:22:08;20.20;;;12.15;;
43998;SDS011;51319;52.162;5.302;2024-01-06T07:24:36;17.00;;;10.73;;
43998;SDS011;51319;52.162;5.302;2024-01-06T07:27:03;15.85;;;10.73;;
43998;SDS011;51319;52.162;5.302;2024-01-06T07:29:30;23.20;;;11.32;;
43998;SDS011;51319;52.162;5.302;2024-01-06T07:31:58;17.92;;;10.63;;
43998;SDS011;51319;52.162;5.302;2024-01-06T07:34:25;17.80;;;10.63;;
43998;SDS011;51319;52.162;5.302;2024-01-06T07:36:52;17.00;;;10.10;;
43998;SDS011;51319;52.162;5.302;2024-01-06T07:39:19;16.73;;;9.80;;
43998;SDS011;51319;52.162;5.302;2024-01-06T07:41:47;20.02;;;11.63;;
43998;SDS011;51319;52.162;5.302;2024-01-06T07:44:13;14.07;;;10.23;;
43998;SDS011;51319;52.162;5.302;2024-01-06T07:46:42;14.73;;;10.10;;
43998;SDS011;51319;52.162;5.302;2024-01-06T07:49:09;21.33;;;10.60;;
43998;SDS011;51319;52.162;5.302;2024-01-06T07:51:36;20.10;;;9.90;;
43998;SDS011;51319;52.162;5.302;2024-01-06T07:54:03;16.83;;;11.07;;
43998;SDS011;51319;52.162;5.302;2024-01-06T07:56:32;15.05;;;10.38;;
43998;SDS011;51319;52.162;5.302;2024-01-06T07:58:59;18.73;;;10.73;;
43998;SDS011;51319;52.162;5.302;2024-01-06T08:01:27;14.60;;;10.68;;
43998;SDS011;51319;52.162;5.302;2024-01-06T08:03:54;17.10;;;10.35;;
43998;SDS011;51319;52.162;5.302;2024-01-06T08:06:22;17.13;;;10.00;;
43998;SDS011;51319;52.162;5.302;2024-01-06T08:08:49;19.92;;;10.77;;
43998;SDS011;51319;52.162;5.302;2024-01-06T08:11:16;22.17;;;11.55;;
43998;SDS011;51319;52.162;5.302;2024-01-06T08:13:43;18.42;;;10.98;;
43998;SDS011;51319;52.162;5.302;2024-01-06T08:16:10;21.40;;;11.38;;
43998;SDS011;51319;52.162;5.302;2024-01-06T08:18:37;16.25;;;10.07;;
43998;SDS011;51319;52.162;5.302;2024-01-06T08:21:04;16.45;;;10.45;;
43998;SDS011;51319;52.162;5.302;2024-01-06T08:23:31;18.05;;;10.77;;
43998;SDS011;51319;52.162;5.302;2024-01-06T08:25:58;19.52;;;10.80;;
43998;SDS011;51319;52.162;5.302;2024-01-06T08:28:25;18.30;;;10.77;;
43998;SDS011;51319;52.162;5.302;2024-01-06T08:30:52;16.98;;;11.63;;
43998;SDS011;51319;52.162;5.302;2024-01-06T08:33:20;23.55;;;11.23;;
43998;SDS011;51319;52.162;5.302;2024-01-06T08:35:47;17.73;;;10.85;;
43998;SDS011;51319;52.162;5.302;2024-01-06T08:38:15;16.63;;;10.50;;
43998;SDS011;51319;52.162;5.302;2024-01-06T08:40:42;21.85;;;10.73;;
43998;SDS011;51319;52.162;5.302;2024-01-06T08:43:10;18.50;;;10.80;;
43998;SDS011;51319;52.162;5.302;2024-01-06T08:45:37;17.60;;;11.00;;
43998;SDS011;51319;52.162;5.302;2024-01-06T08:48:05;18.80;;;12.07;;
43998;SDS011;51319;52.162;5.302;2024-01-06T08:50:32;19.02;;;10.50;;
43998;SDS011;51319;52.162;5.302;2024-01-06T08:52:59;16.75;;;11.35;;
43998;SDS011;51319;52.162;5.302;2024-01-06T08:55:26;14.75;;;10.60;;
43998;SDS011;51319;52.162;5.302;2024-01-06T08:57:54;18.02;;;10.27;;
43998;SDS011;51319;52.162;5.302;2024-01-06T09:00:21;18.42;;;10.73;;
43998;SDS011;51319;52.162;5.302;2024-01-06T09:02:48;15.95;;;9.68;;
43998;SDS011;51319;52.162;5.302;2024-01-06T09:05:15;16.35;;;8.80;;
43998;SDS011;51319;52.162;5.302;2024-01-06T09:07:43;14.90;;;9.70;;
43998;SDS011;51319;52.162;5.302;2024-01-06T09:10:12;17.75;;;10.88;;
43998;SDS011;51319;52.162;5.302;2024-01-06T09:12:39;12.93;;;8.73;;
43998;SDS011;51319;52.162;5.302;2024-01-06T09:15:06;16.27;;;9.55;;
43998;SDS011;51319;52.162;5.302;2024-01-06T09:17:33;19.77;;;9.80;;
43998;SDS011;51319;52.162;5.302;2024-01-06T09:20:01;16.92;;;9.02;;
43998;SDS011;51319;52.162;5.302;2024-01-06T09:22:31;14.80;;;9.25;;
43998;SDS011;51319;52.162;5.302;2024-01-06T09:24:59;16.33;;;9.40;;
43998;SDS011;51319;52.162;5.302;2024-01-06T09:27:26;12.98;;;7.93;;
43998;SDS011;51319;52.162;5.302;2024-01-06T09:29:53;18.83;;;7.95;;
43998;SDS011;51319;52.162;5.302;2024-01-06T09:32:22;10.52;;;7.15;;
43998;SDS011;51319;52.162;5.302;2024-01-06T09:34:50;11.02;;;6.50;;
43998;SDS011;51319;52.162;5.302;2024-01-06T09:37:17;13.07;;;7.68;;
43998;SDS011;51319;52.162;5.302;2024-01-06T09:39:45;13.63;;;6.53;;
43998;SDS011;51319;52.162;5.302;2024-01-06T09:42:12;34.67;;;18.45;;
43998;SDS011;51319;52.162;5.302;2024-01-06T09:44:39;10.57;;;6.75;;
43998;SDS011;51319;52.162;5.302;2024-01-06T09:47:07;10.88;;;6.53;;
43998;SDS011;51319;52.162;5.302;2024-01-06T09:49:38;16.63;;;8.57;;
43998;SDS011;51319;52.162;5.302;2024-01-06T09:52:11;12.88;;;7.55;;
43998;SDS011;51319;52.162;5.302;2024-01-06T09:54:48;12.40;;;7.93;;
43998;SDS011;51319;52.162;5.302;2024-01-06T09:57:19;11.63;;;7.78;;
43998;SDS011;51319;52.162;5.302;2024-01-06T09:59:47;13.48;;;8.32;;
43998;SDS011;51319;52.162;5.302;2024-01-06T10:02:14;13.50;;;8.20;;
43998;SDS011;51319;52.162;5.302;2024-01-06T10:04:43;15.43;;;9.57;;
43998;SDS011;51319;52.162;5.302;2024-01-06T10:07:11;18.80;;;8.95;;
43998;SDS011;51319;52.162;5.302;2024-01-06T10:09:40;11.80;;;7.63;;
43998;SDS011;51319;52.162;5.302;2024-01-06T10:12:11;19.05;;;9.38;;
43998;SDS011;51319;52.162;5.302;2024-01-06T10:14:38;15.43;;;8.13;;
43998;SDS011;51319;52.162;5.302;2024-01-06T10:17:06;15.98;;;8.85;;
43998;SDS011;51319;52.162;5.302;2024-01-06T10:19:34;11.45;;;7.78;;
43998;SDS011;51319;52.162;5.302;2024-01-06T10:22:03;17.98;;;8.98;;
43998;SDS011;51319;52.162;5.302;2024-01-06T10:24:29;20.38;;;8.63;;
43998;SDS011;51319;52.162;5.302;2024-01-06T10:26:58;12.30;;;9.20;;
43998;SDS011;51319;52.162;5.302;2024-01-06T10:29:27;18.35;;;9.50;;
43998;SDS011;51319;52.162;5.302;2024-01-06T10:31:54;15.45;;;10.77;;
43998;SDS011;51319;52.162;5.302;2024-01-06T10:34:23;16.15;;;9.00;;
43998;SDS011;51319;52.162;5.302;2024-01-06T10:36:51;13.85;;;9.30;;
43998;SDS011;51319;52.162;5.302;2024-01-06T10:39:21;19.00;;;10.03;;
43998;SDS011;51319;52.162;5.302;2024-01-06T10:41:51;15.50;;;9.95;;
43998;SDS011;51319;52.162;5.302;2024-01-06T10:44:21;16.77;;;9.57;;
43998;SDS011;51319;52.162;5.302;2024-01-06T10:46:51;15.20;;;9.55;;
43998;SDS011;51319;52.162;5.302;2024-01-06T10:49:20;14.43;;;8.93;;
43998;SDS011;51319;52.162;5.302;2024-01-06T10:51:51;16.33;;;9.48;;
43998;SDS011;51319;52.162;5.302;2024-01-06T10:54:21;16.90;;;9.17;;
43998;SDS011;51319;52.162;5.302;2024-01-06T10:56:52;17.77;;;11.05;;
43998;SDS011;51319;52.162;5.302;2024-01-06T10:59:20;18.23;;;9.95;;
43998;SDS011;51319;52.162;5.302;2024-01-06T11:01:51;16.05;;;9.50;;
43998;SDS011;51319;52.162;5.302;2024-01-06T11:04:20;13.45;;;8.10;;
43998;SDS011;51319;52.162;5.302;2024-01-06T11:06:48;19.27;;;9.98;;
43998;SDS011;51319;52.162;5.302;2024-01-06T11:09:21;12.05;;;8.73;;
43998;SDS011;51319;52.162;5.302;2024-01-06T11:11:53;23.08;;;8.63;;
43998;SDS011;51319;52.162;5.302;2024-01-06T11:14:26;14.52;;;8.68;;
43998;SDS011;51319;52.162;5.302;2024-01-06T11:16:58;22.33;;;11.15;;
43998;SDS011;51319;52.162;5.302;2024-01-06T11:24:55;17.23;;;11.07;;
43998;SDS011;51319;52.162;5.302;2024-01-06T11:27:30;15.70;;;9.48;;
43998;SDS011;51319;52.162;5.302;2024-01-06T11:29:59;16.30;;;9.35;;
43998;SDS011;51319;52.162;5.302;2024-01-06T11:32:35;19.70;;;10.70;;
43998;SDS011;51319;52.162;5.302;2024-01-06T11:35:12;13.63;;;8.30;;
43998;SDS011;51319;52.162;5.302;2024-01-06T11:42:48;14.80;;;7.95;;
43998;SDS011;51319;52.162;5.302;2024-01-06T11:45:24;14.43;;;9.13;;
43998;SDS011;51319;52.162;5.302;2024-01-06T11:47:54;16.40;;;9.65;;
43998;SDS011;51319;52.162;5.302;2024-01-06T11:50:27;15.32;;;8.48;;
43998;SDS011;51319;52.162;5.302;2024-01-06T11:52:55;10.90;;;7.63;;
43998;SDS011;51319;52.162;5.302;2024-01-06T11:55:22;14.40;;;8.40;;
43998;SDS011;51319;52.162;5.302;2024-01-06T11:57:51;11.35;;;7.45;;
43998;SDS011;51319;52.162;5.302;2024-01-06T12:00:18;9.80;;;7.40;;
43998;SDS011;51319;52.162;5.302;2024-01-06T12:02:45;12.27;;;7.25;;
43998;SDS011;51319;52.162;5.302;2024-01-06T12:05:16;11.70;;;7.15;;
43998;SDS011;51319;52.162;5.302;2024-01-06T12:07:55;10.40;;;7.72;;
43998;SDS011;51319;52.162;5.302;2024-01-06T12:10:23;14.18;;;8.15;;
43998;SDS011;51319;52.162;5.302;2024-01-06T12:12:58;9.55;;;6.72;;
43998;SDS011;51319;52.162;5.302;2024-01-06T12:15:26;11.52;;;7.78;;
43998;SDS011;51319;52.162;5.302;2024-01-06T12:17:54;12.90;;;9.98;;
43998;SDS011;51319;52.162;5.302;2024-01-06T12:20:22;12.05;;;7.72;;
43998;SDS011;51319;52.162;5.302;2024-01-06T12:22:53;16.07;;;9.13;;
43998;SDS011;51319;52.162;5.302;2024-01-06T12:25:21;13.40;;;7.32;;
43998;SDS011;51319;52.162;5.302;2024-01-06T12:27:50;14.82;;;8.38;;
43998;SDS011;51319;52.162;5.302;2024-01-06T12:30:21;15.40;;;8.43;;
43998;SDS011;51319;52.162;5.302;2024-01-06T12:32:50;11.50;;;7.22;;
43998;SDS011;51319;52.162;5.302;2024-01-06T12:35:20;15.75;;;7.72;;
43998;SDS011;51319;52.162;5.302;2024-01-06T12:37:51;15.15;;;8.18;;
43998;SDS011;51319;52.162;5.302;2024-01-06T12:40:18;13.30;;;9.73;;
43998;SDS011;51319;52.162;5.302;2024-01-06T12:42:46;13.38;;;8.35;;
43998;SDS011;51319;52.162;5.302;2024-01-06T12:45:14;20.42;;;9.70;;
43998;SDS011;51319;52.162;5.302;2024-01-06T12:47:48;14.88;;;9.43;;
43998;SDS011;51319;52.162;5.302;2024-01-06T12:50:15;15.40;;;9.32;;
43998;SDS011;51319;52.162;5.302;2024-01-06T12:52:42;19.65;;;9.15;;
43998;SDS011;51319;52.162;5.302;2024-01-06T12:55:10;19.30;;;11.10;;
43998;SDS011;51319;52.162;5.302;2024-01-06T12:57:39;16.55;;;10.15;;
43998;SDS011;51319;52.162;5.302;2024-01-06T13:00:06;18.00;;;10.25;;
43998;SDS011;51319;52.162;5.302;2024-01-06T13:02:38;19.17;;;9.13;;
43998;SDS011;51319;52.162;5.302;2024-01-06T13:05:05;19.67;;;10.85;;
43998;SDS011;51319;52.162;5.302;2024-01-06T13:07:36;23.80;;;16.23;;
43998;SDS011;51319;52.162;5.302;2024-01-06T13:10:03;28.83;;;18.02;;
43998;SDS011;51319;52.162;5.302;2024-01-06T13:12:31;21.38;;;12.02;;
43998;SDS011;51319;52.162;5.302;2024-01-06T13:14:58;18.77;;;10.40;;
43998;SDS011;51319;52.162;5.302;2024-01-06T13:17:26;18.40;;;9.40;;
43998;SDS011;51319;52.162;5.302;2024-01-06T13:19:53;12.98;;;9.00;;
43998;SDS011;51319;52.162;5.302;2024-01-06T13:22:21;17.20;;;9.88;;
43998;SDS011;51319;52.162;5.302;2024-01-06T13:24:48;13.63;;;10.18;;
43998;SDS011;51319;52.162;5.302;2024-01-06T13:27:19;17.33;;;10.52;;
43998;SDS011;51319;52.162;5.302;2024-01-06T13:29:46;20.95;;;11.52;;
43998;SDS011;51319;52.162;5.302;2024-01-06T13:32:13;16.52;;;10.02;;
43998;SDS011;51319;52.162;5.302;2024-01-06T13:34:41;16.45;;;10.13;;
43998;SDS011;51319;52.162;5.302;2024-01-06T13:37:09;13.23;;;9.27;;
43998;SDS011;51319;52.162;5.302;2024-01-06T13:39:37;16.55;;;9.27;;
43998;SDS011;51319;52.162;5.302;2024-01-06T13:42:05;15.43;;;9.48;;
43998;SDS011;51319;52.162;5.302;2024-01-06T13:44:32;17.20;;;9.88;;
43998;SDS011;51319;52.162;5.302;2024-01-06T13:47:00;14.93;;;9.95;;
43998;SDS011;51319;52.162;5.302;2024-01-06T13:49:27;21.27;;;11.02;;
43998;SDS011;51319;52.162;5.302;2024-01-06T13:51:56;14.48;;;9.55;;
43998;SDS011;51319;52.162;5.302;2024-01-06T13:54:24;13.30;;;9.15;;
43998;SDS011;51319;52.162;5.302;2024-01-06T13:56:51;17.27;;;9.10;;
43998;SDS011;51319;52.162;5.302;2024-01-06T13:59:20;16.80;;;10.95;;
43998;SDS011;51319;52.162;5.302;2024-01-06T14:01:50;22.65;;;10.18;;
43998;SDS011;51319;52.162;5.302;2024-01-06T14:04:18;18.80;;;10.65;;
43998;SDS011;51319;52.162;5.302;2024-01-06T14:06:45;15.88;;;10.35;;
43998;SDS011;51319;52.162;5.302;2024-01-06T14:09:14;22.67;;;11.00;;
43998;SDS011;51319;52.162;5.302;2024-01-06T14:11:41;23.02;;;9.57;;
43998;SDS011;51319;52.162;5.302;2024-01-06T14:14:08;17.92;;;10.45;;
43998;SDS011;51319;52.162;5.302;2024-01-06T14:16:35;13.55;;;9.38;;
43998;SDS011;51319;52.162;5.302;2024-01-06T14:19:02;15.88;;;9.70;;
43998;SDS011;51319;52.162;5.302;2024-01-06T14:21:30;18.38;;;9.70;;
43998;SDS011;51319;52.162;5.302;2024-01-06T14:23:57;19.17;;;11.20;;
43998;SDS011;51319;52.162;5.302;2024-01-06T14:26:24;20.83;;;11.00;;
43998;SDS011;51319;52.162;5.302;2024-01-06T14:28:51;18.90;;;10.48;;
43998;SDS011;51319;52.162;5.302;2024-01-06T14:31:18;17.90;;;10.45;;
43998;SDS011;51319;52.162;5.302;2024-01-06T14:33:46;16.95;;;9.82;;
43998;SDS011;51319;52.162;5.302;2024-01-06T14:36:13;14.73;;;9.88;;
43998;SDS011;51319;52.162;5.302;2024-01-06T14:38:40;15.27;;;10.27;;
43998;SDS011;51319;52.162;5.302;2024-01-06T14:41:08;17.35;;;10.00;;
43998;SDS011;51319;52.162;5.302;2024-01-06T14:43:35;17.10;;;10.40;;
43998;SDS011;51319;52.162;5.302;2024-01-06T14:46:02;18.02;;;10.85;;
43998;SDS011;51319;52.162;5.302;2024-01-06T14:48:32;15.60;;;8.98;;
43998;SDS011;51319;52.162;5.302;2024-01-06T14:51:00;14.95;;;9.77;;